sensor_id;sensor_type;location;lat;lon;timestamp;P1;durP1;ratioP1;P2;durP2;ratioP2
5678;SDS011;2862;52.560;13.566;2022-09-06T00:08:54;30.70;;;0.43;;
5678;SDS011;2862;52.560;13.566;2022-09-06T00:18:59;18.20;;;0.27;;
5678;SDS011;2862;52.560;13.566;2022-09-06T00:29:02;16.00;;;0.30;;
5678;SDS011;2862;52.560;13.566;2022-09-06T00:39:06;15.67;;;0.47;;
5678;SDS011;2862;52.560;13.566;2022-09-06T00:49:10;17.43;;;0.30;;
5678;SDS011;2862;52.560;13.566;2022-09-06T00:59:26;18.00;;;0.30;;
5678;SDS011;2862;52.560;13.566;2022-09-06T01:09:37;16.20;;;0.30;;
5678;SDS011;2862;52.560;13.566;2022-09-06T01:20:08;17.30;;;0.30;;
5678;SDS011;2862;52.560;13.566;2022-09-06T01:30:26;14.87;;;0.23;;
5678;SDS011;2862;52.560;13.566;2022-09-06T01:40:30;18.10;;;0.47;;
5678;SDS011;2862;52.560;13.566;2022-09-06T01:50:43;17.13;;;0.30;;
5678;SDS011;2862;52.560;13.566;2022-09-06T02:01:01;16.03;;;0.40;;
5678;SDS011;2862;52.560;13.566;2022-09-06T02:11:12;18.77;;;0.20;;
5678;SDS011;2862;52.560;13.566;2022-09-06T02:21:17;16.00;;;0.30;;
5678;SDS011;2862;52.560;13.566;2022-09-06T02:31:27;16.13;;;0.30;;
5678;SDS011;2862;52.560;13.566;2022-09-06T02:41:33;15.90;;;0.57;;
5678;SDS011;2862;52.560;13.566;2022-09-06T02:51:38;15.53;;;0.30;;
5678;SDS011;2862;52.560;13.566;2022-09-06T03:01:41;15.67;;;0.30;;
5678;SDS011;2862;52.560;13.566;2022-09-06T03:11:45;18.17;;;0.40;;
5678;SDS011;2862;52.560;13.566;2022-09-06T03:21:48;15.40;;;0.30;;
5678;SDS011;2862;52.560;13.566;2022-09-06T03:31:52;16.10;;;0.30;;
5678;SDS011;2862;52.560;13.566;2022-09-06T03:41:55;19.37;;;0.53;;
5678;SDS011;2862;52.560;13.566;2022-09-06T03:52:00;15.20;;;0.40;;
5678;SDS011;2862;52.560;13.566;2022-09-06T04:02:03;20.00;;;0.40;;
5678;SDS011;2862;52.560;13.566;2022-09-06T04:12:08;15.50;;;0.30;;
5678;SDS011;2862;52.560;13.566;2022-09-06T04:22:11;19.07;;;0.53;;
5678;SDS011;2862;52.560;13.566;2022-09-06T04:32:16;15.70;;;0.37;;
5678;SDS011;2862;52.560;13.566;2022-09-06T04:42:19;17.13;;;0.30;;
5678;SDS011;2862;52.560;13.566;2022-09-06T04:52:23;19.30;;;0.30;;
5678;SDS011;2862;52.560;13.566;2022-09-06T05:02:29;17.40;;;0.50;;
5678;SDS011;2862;52.560;13.566;2022-09-06T05:12:34;18.10;;;0.30;;
5678;SDS011;2862;52.560;13.566;2022-09-06T05:22:39;15.40;;;0.30;;
5678;SDS011;2862;52.560;13.566;2022-09-06T05:32:44;21.80;;;2.47;;
5678;SDS011;2862;52.560;13.566;2022-09-06T05:42:47;21.40;;;0.60;;
5678;SDS011;2862;52.560;13.566;2022-09-06T05:52:53;15.77;;;0.47;;
5678;SDS011;2862;52.560;13.566;2022-09-06T06:02:56;14.47;;;0.30;;
5678;SDS011;2862;52.560;13.566;2022-09-06T06:13:00;16.70;;;0.80;;
5678;SDS011;2862;52.560;13.566;2022-09-06T06:23:03;15.97;;;0.40;;
5678;SDS011;2862;52.560;13.566;2022-09-06T06:33:08;15.00;;;0.33;;
5678;SDS011;2862;52.560;13.566;2022-09-06T06:43:10;14.70;;;0.30;;
5678;SDS011;2862;52.560;13.566;2022-09-06T06:53:15;20.30;;;0.30;;
5678;SDS011;2862;52.560;13.566;2022-09-06T07:03:18;16.27;;;0.50;;
5678;SDS011;2862;52.560;13.566;2022-09-06T07:13:22;17.13;;;0.40;;
5678;SDS011;2862;52.560;13.566;2022-09-06T07:23:25;19.10;;;0.73;;
5678;SDS011;2862;52.560;13.566;2022-09-06T07:33:50;16.70;;;0.40;;
5678;SDS011;2862;52.560;13.566;2022-09-06T07:43:54;16.53;;;0.60;;
5678;SDS011;2862;52.560;13.566;2022-09-06T07:53:58;16.13;;;0.67;;
5678;SDS011;2862;52.560;13.566;2022-09-06T08:04:13;16.23;;;0.80;;
5678;SDS011;2862;52.560;13.566;2022-09-06T08:14:18;19.87;;;1.47;;
5678;SDS011;2862;52.560;13.566;2022-09-06T08:24:21;18.10;;;0.63;;
5678;SDS011;2862;52.560;13.566;2022-09-06T08:34:27;21.83;;;0.80;;
5678;SDS011;2862;52.560;13.566;2022-09-06T08:44:32;17.40;;;0.53;;
5678;SDS011;2862;52.560;13.566;2022-09-06T08:54:58;21.00;;;1.00;;
5678;SDS011;2862;52.560;13.566;2022-09-06T09:05:14;19.73;;;2.50;;
5678;SDS011;2862;52.560;13.566;2022-09-06T09:15:25;20.93;;;0.80;;
5678;SDS011;2862;52.560;13.566;2022-09-06T09:25:30;17.97;;;1.00;;
5678;SDS011;2862;52.560;13.566;2022-09-06T09:35:36;16.97;;;0.60;;
5678;SDS011;2862;52.560;13.566;2022-09-06T09:45:44;17.27;;;0.80;;
5678;SDS011;2862;52.560;13.566;2022-09-06T09:55:54;19.73;;;1.37;;
5678;SDS011;2862;52.560;13.566;2022-09-06T10:05:59;17.80;;;0.70;;
5678;SDS011;2862;52.560;13.566;2022-09-06T10:16:05;16.77;;;0.60;;
5678;SDS011;2862;52.560;13.566;2022-09-06T10:26:10;20.10;;;1.00;;
5678;SDS011;2862;52.560;13.566;2022-09-06T10:36:27;27.60;;;0.43;;
5678;SDS011;2862;52.560;13.566;2022-09-06T10:46:34;22.90;;;0.40;;
5678;SDS011;2862;52.560;13.566;2022-09-06T10:56:40;18.50;;;0.50;;
5678;SDS011;2862;52.560;13.566;2022-09-06T11:06:47;21.63;;;0.60;;
5678;SDS011;2862;52.560;13.566;2022-09-06T11:16:56;27.60;;;1.10;;
5678;SDS011;2862;52.560;13.566;2022-09-06T11:27:06;16.80;;;1.13;;
5678;SDS011;2862;52.560;13.566;2022-09-06T11:37:22;17.80;;;1.50;;
5678;SDS011;2862;52.560;13.566;2022-09-06T11:47:40;19.07;;;1.70;;
5678;SDS011;2862;52.560;13.566;2022-09-06T11:57:51;19.43;;;1.00;;
5678;SDS011;2862;52.560;13.566;2022-09-06T12:08:12;18.27;;;1.90;;
5678;SDS011;2862;52.560;13.566;2022-09-06T12:18:55;21.37;;;1.10;;
5678;SDS011;2862;52.560;13.566;2022-09-06T12:29:02;19.57;;;1.30;;
5678;SDS011;2862;52.560;13.566;2022-09-06T12:39:13;22.73;;;2.00;;
5678;SDS011;2862;52.560;13.566;2022-09-06T12:49:16;21.23;;;1.73;;
5678;SDS011;2862;52.560;13.566;2022-09-06T12:59:24;17.67;;;1.60;;
5678;SDS011;2862;52.560;13.566;2022-09-06T13:09:27;20.00;;;2.00;;
5678;SDS011;2862;52.560;13.566;2022-09-06T13:19:34;18.50;;;2.00;;
5678;SDS011;2862;52.560;13.566;2022-09-06T13:29:38;21.07;;;1.90;;
5678;SDS011;2862;52.560;13.566;2022-09-06T13:39:44;17.37;;;1.60;;
5678;SDS011;2862;52.560;13.566;2022-09-06T13:49:46;22.47;;;2.67;;
5678;SDS011;2862;52.560;13.566;2022-09-06T13:59:51;18.80;;;2.10;;
5678;SDS011;2862;52.560;13.566;2022-09-06T14:09:53;23.27;;;2.47;;
5678;SDS011;2862;52.560;13.566;2022-09-06T14:19:57;19.80;;;2.50;;
5678;SDS011;2862;52.560;13.566;2022-09-06T14:30:00;25.47;;;3.30;;
5678;SDS011;2862;52.560;13.566;2022-09-06T14:40:05;18.10;;;2.00;;
5678;SDS011;2862;52.560;13.566;2022-09-06T14:50:09;20.10;;;2.53;;
5678;SDS011;2862;52.560;13.566;2022-09-06T15:00:13;21.43;;;2.27;;
5678;SDS011;2862;52.560;13.566;2022-09-06T15:10:17;18.77;;;2.23;;
5678;SDS011;2862;52.560;13.566;2022-09-06T15:20:22;23.57;;;2.83;;
5678;SDS011;2862;52.560;13.566;2022-09-06T15:30:25;20.63;;;2.20;;
5678;SDS011;2862;52.560;13.566;2022-09-06T15:40:30;20.13;;;1.50;;
5678;SDS011;2862;52.560;13.566;2022-09-06T15:50:34;25.33;;;2.40;;
5678;SDS011;2862;52.560;13.566;2022-09-06T16:01:02;18.63;;;1.90;;
5678;SDS011;2862;52.560;13.566;2022-09-06T16:11:07;18.63;;;1.40;;
5678;SDS011;2862;52.560;13.566;2022-09-06T16:21:14;18.10;;;1.53;;
5678;SDS011;2862;52.560;13.566;2022-09-06T16:31:20;22.60;;;1.87;;
5678;SDS011;2862;52.560;13.566;2022-09-06T16:41:25;16.97;;;1.20;;
5678;SDS011;2862;52.560;13.566;2022-09-06T16:51:30;28.40;;;1.20;;
5678;SDS011;2862;52.560;13.566;2022-09-06T17:01:35;18.53;;;1.33;;
5678;SDS011;2862;52.560;13.566;2022-09-06T17:11:41;19.10;;;1.53;;
5678;SDS011;2862;52.560;13.566;2022-09-06T17:21:46;19.13;;;1.47;;
5678;SDS011;2862;52.560;13.566;2022-09-06T17:31:49;20.10;;;1.80;;
5678;SDS011;2862;52.560;13.566;2022-09-06T17:41:53;17.50;;;1.80;;
5678;SDS011;2862;52.560;13.566;2022-09-06T17:51:56;16.90;;;1.30;;
5678;SDS011;2862;52.560;13.566;2022-09-06T18:02:01;18.50;;;0.80;;
5678;SDS011;2862;52.560;13.566;2022-09-06T18:12:04;19.33;;;1.20;;
5678;SDS011;2862;52.560;13.566;2022-09-06T18:22:08;21.60;;;1.60;;
5678;SDS011;2862;52.560;13.566;2022-09-06T18:32:11;19.70;;;1.50;;
5678;SDS011;2862;52.560;13.566;2022-09-06T18:42:15;16.80;;;1.10;;
5678;SDS011;2862;52.560;13.566;2022-09-06T18:52:18;22.80;;;2.20;;
5678;SDS011;2862;52.560;13.566;2022-09-06T19:02:22;22.53;;;1.73;;
5678;SDS011;2862;52.560;13.566;2022-09-06T19:12:26;16.33;;;0.70;;
5678;SDS011;2862;52.560;13.566;2022-09-06T19:22:31;17.87;;;1.10;;
5678;SDS011;2862;52.560;13.566;2022-09-06T19:32:34;18.67;;;1.07;;
5678;SDS011;2862;52.560;13.566;2022-09-06T19:42:38;22.73;;;0.90;;
5678;SDS011;2862;52.560;13.566;2022-09-06T19:52:41;17.60;;;0.90;;
5678;SDS011;2862;52.560;13.566;2022-09-06T20:02:45;20.20;;;1.17;;
5678;SDS011;2862;52.560;13.566;2022-09-06T20:12:49;23.83;;;1.87;;
5678;SDS011;2862;52.560;13.566;2022-09-06T20:22:53;22.50;;;0.80;;
5678;SDS011;2862;52.560;13.566;2022-09-06T20:32:56;20.07;;;1.17;;
5678;SDS011;2862;52.560;13.566;2022-09-06T20:43:01;18.60;;;0.57;;
5678;SDS011;2862;52.560;13.566;2022-09-06T20:53:04;16.63;;;0.63;;
5678;SDS011;2862;52.560;13.566;2022-09-06T21:03:08;17.93;;;0.83;;
5678;SDS011;2862;52.560;13.566;2022-09-06T21:13:11;17.10;;;1.00;;
5678;SDS011;2862;52.560;13.566;2022-09-06T21:23:15;17.10;;;0.93;;
5678;SDS011;2862;52.560;13.566;2022-09-06T21:33:18;16.20;;;0.60;;
5678;SDS011;2862;52.560;13.566;2022-09-06T21:43:22;18.43;;;0.67;;
5678;SDS011;2862;52.560;13.566;2022-09-06T21:53:25;19.43;;;0.80;;
5678;SDS011;2862;52.560;13.566;2022-09-06T22:03:30;22.03;;;0.80;;
5678;SDS011;2862;52.560;13.566;2022-09-06T22:13:34;18.93;;;0.80;;
5678;SDS011;2862;52.560;13.566;2022-09-06T22:23:38;21.20;;;1.00;;
5678;SDS011;2862;52.560;13.566;2022-09-06T22:33:41;40.70;;;1.40;;
5678;SDS011;2862;52.560;13.566;2022-09-06T22:43:46;19.77;;;0.97;;
5678;SDS011;2862;52.560;13.566;2022-09-06T22:53:49;25.23;;;0.70;;
5678;SDS011;2862;52.560;13.566;2022-09-06T23:03:53;18.40;;;0.50;;
5678;SDS011;2862;52.560;13.566;2022-09-06T23:13:57;21.57;;;0.73;;
5678;SDS011;2862;52.560;13.566;2022-09-06T23:24:02;18.43;;;0.50;;
5678;SDS011;2862;52.560;13.566;2022-09-06T23:34:06;19.13;;;0.50;;
5678;SDS011;2862;52.560;13.566;2022-09-06T23:44:10;19.67;;;0.67;;
5678;SDS011;2862;52.560;13.566;2022-09-06T23:54:13;17.43;;;0.53;;
